sensor_id;sensor_type;location;lat;lon;timestamp;P1;durP1;ratioP1;P2;durP2;ratioP2
6809;SDS011;3443;48.812;9.112;2023-08-24T00:00:37;3.20;;;3.00;;
6809;SDS011;3443;48.812;9.112;2023-08-24T00:03:03;3.05;;;2.65;;
6809;SDS011;3443;48.812;9.112;2023-08-24T00:05:29;3.08;;;2.75;;
6809;SDS011;3443;48.812;9.112;2023-08-24T00:07:55;2.67;;;2.55;;
6809;SDS011;3443;48.812;9.112;2023-08-24T00:10:21;2.97;;;2.78;;
6809;SDS011;3443;48.812;9.112;2023-08-24T00:12:47;3.83;;;2.80;;
6809;SDS011;3443;48.812;9.112;2023-08-24T00:15:13;3.30;;;3.00;;
6809;SDS011;3443;48.812;9.112;2023-08-24T00:17:39;3.13;;;2.92;;
6809;SDS011;3443;48.812;9.112;2023-08-24T00:20:06;3.38;;;3.08;;
6809;SDS011;3443;48.812;9.112;2023-08-24T00:22:35;3.10;;;2.90;;
6809;SDS011;3443;48.812;9.112;2023-08-24T00:25:01;2.92;;;2.72;;
6809;SDS011;3443;48.812;9.112;2023-08-24T00:27:27;3.63;;;3.28;;
6809;SDS011;3443;48.812;9.112;2023-08-24T00:29:53;3.15;;;2.88;;
6809;SDS011;3443;48.812;9.112;2023-08-24T00:32:19;3.40;;;3.10;;
6809;SDS011;3443;48.812;9.112;2023-08-24T00:34:45;3.88;;;3.05;;
6809;SDS011;3443;48.812;9.112;2023-08-24T00:37:11;4.63;;;3.03;;
6809;SDS011;3443;48.812;9.112;2023-08-24T00:39:37;2.80;;;2.70;;
6809;SDS011;3443;48.812;9.112;2023-08-24T00:42:03;3.00;;;2.80;;
6809;SDS011;3443;48.812;9.112;2023-08-24T00:44:30;2.75;;;2.65;;
6809;SDS011;3443;48.812;9.112;2023-08-24T00:46:56;3.67;;;3.35;;
6809;SDS011;3443;48.812;9.112;2023-08-24T00:49:23;3.20;;;2.90;;
6809;SDS011;3443;48.812;9.112;2023-08-24T00:51:49;3.15;;;2.90;;
6809;SDS011;3443;48.812;9.112;2023-08-24T00:54:15;3.20;;;3.00;;
6809;SDS011;3443;48.812;9.112;2023-08-24T00:56:42;4.95;;;2.92;;
6809;SDS011;3443;48.812;9.112;2023-08-24T00:59:08;3.08;;;2.97;;
6809;SDS011;3443;48.812;9.112;2023-08-24T01:01:34;3.40;;;2.88;;
6809;SDS011;3443;48.812;9.112;2023-08-24T01:04:00;3.92;;;2.80;;
6809;SDS011;3443;48.812;9.112;2023-08-24T01:06:27;3.95;;;3.00;;
6809;SDS011;3443;48.812;9.112;2023-08-24T01:08:54;5.75;;;3.28;;
6809;SDS011;3443;48.812;9.112;2023-08-24T01:16:39;4.00;;;3.65;;
6809;SDS011;3443;48.812;9.112;2023-08-24T01:19:07;3.38;;;3.17;;
6809;SDS011;3443;48.812;9.112;2023-08-24T01:21:36;3.30;;;3.00;;
6809;SDS011;3443;48.812;9.112;2023-08-24T01:24:04;2.95;;;2.80;;
6809;SDS011;3443;48.812;9.112;2023-08-24T01:26:34;3.53;;;2.90;;
6809;SDS011;3443;48.812;9.112;2023-08-24T01:29:01;3.40;;;3.28;;
6809;SDS011;3443;48.812;9.112;2023-08-24T01:31:29;3.63;;;3.42;;
6809;SDS011;3443;48.812;9.112;2023-08-24T01:33:55;3.38;;;3.03;;
6809;SDS011;3443;48.812;9.112;2023-08-24T01:36:21;3.38;;;3.15;;
6809;SDS011;3443;48.812;9.112;2023-08-24T01:38:52;3.15;;;2.95;;
6809;SDS011;3443;48.812;9.112;2023-08-24T01:41:21;3.20;;;3.10;;
6809;SDS011;3443;48.812;9.112;2023-08-24T01:43:49;3.47;;;3.17;;
6809;SDS011;3443;48.812;9.112;2023-08-24T01:46:18;3.85;;;3.20;;
6809;SDS011;3443;48.812;9.112;2023-08-24T01:48:45;4.38;;;3.00;;
6809;SDS011;3443;48.812;9.112;2023-08-24T01:51:11;3.40;;;3.20;;
6809;SDS011;3443;48.812;9.112;2023-08-24T01:53:38;3.95;;;3.58;;
6809;SDS011;3443;48.812;9.112;2023-08-24T01:56:08;4.53;;;3.58;;
6809;SDS011;3443;48.812;9.112;2023-08-24T01:58:35;3.88;;;3.58;;
6809;SDS011;3443;48.812;9.112;2023-08-24T02:01:01;5.43;;;3.28;;
6809;SDS011;3443;48.812;9.112;2023-08-24T02:03:27;3.10;;;3.00;;
6809;SDS011;3443;48.812;9.112;2023-08-24T02:05:53;4.03;;;3.63;;
6809;SDS011;3443;48.812;9.112;2023-08-24T02:08:18;6.47;;;3.20;;
6809;SDS011;3443;48.812;9.112;2023-08-24T02:10:44;3.10;;;3.00;;
6809;SDS011;3443;48.812;9.112;2023-08-24T02:13:10;5.32;;;2.75;;
6809;SDS011;3443;48.812;9.112;2023-08-24T02:15:37;3.50;;;3.20;;
6809;SDS011;3443;48.812;9.112;2023-08-24T02:18:06;3.17;;;3.03;;
6809;SDS011;3443;48.812;9.112;2023-08-24T02:20:34;4.78;;;3.03;;
6809;SDS011;3443;48.812;9.112;2023-08-24T02:23:00;3.38;;;3.22;;
6809;SDS011;3443;48.812;9.112;2023-08-24T02:25:26;3.25;;;3.05;;
6809;SDS011;3443;48.812;9.112;2023-08-24T02:27:53;3.55;;;3.35;;
6809;SDS011;3443;48.812;9.112;2023-08-24T02:30:19;3.58;;;3.30;;
6809;SDS011;3443;48.812;9.112;2023-08-24T02:32:45;4.43;;;3.78;;
6809;SDS011;3443;48.812;9.112;2023-08-24T02:35:11;3.53;;;3.15;;
6809;SDS011;3443;48.812;9.112;2023-08-24T02:37:37;3.55;;;3.33;;
6809;SDS011;3443;48.812;9.112;2023-08-24T02:40:03;3.28;;;3.00;;
6809;SDS011;3443;48.812;9.112;2023-08-24T02:42:33;3.58;;;3.20;;
6809;SDS011;3443;48.812;9.112;2023-08-24T02:44:59;3.33;;;3.13;;
6809;SDS011;3443;48.812;9.112;2023-08-24T02:47:25;3.50;;;3.08;;
6809;SDS011;3443;48.812;9.112;2023-08-24T02:49:51;4.32;;;4.03;;
6809;SDS011;3443;48.812;9.112;2023-08-24T02:52:17;3.58;;;3.28;;
6809;SDS011;3443;48.812;9.112;2023-08-24T02:54:43;3.53;;;3.33;;
6809;SDS011;3443;48.812;9.112;2023-08-24T02:57:09;3.17;;;3.08;;
6809;SDS011;3443;48.812;9.112;2023-08-24T02:59:35;5.03;;;3.08;;
6809;SDS011;3443;48.812;9.112;2023-08-24T03:02:01;3.40;;;3.22;;
6809;SDS011;3443;48.812;9.112;2023-08-24T03:04:27;4.07;;;3.78;;
6809;SDS011;3443;48.812;9.112;2023-08-24T03:06:53;3.55;;;3.25;;
6809;SDS011;3443;48.812;9.112;2023-08-24T03:09:19;3.50;;;3.30;;
6809;SDS011;3443;48.812;9.112;2023-08-24T03:11:45;4.45;;;4.05;;
6809;SDS011;3443;48.812;9.112;2023-08-24T03:14:11;3.63;;;3.13;;
6809;SDS011;3443;48.812;9.112;2023-08-24T03:16:38;3.55;;;3.35;;
6809;SDS011;3443;48.812;9.112;2023-08-24T03:19:04;3.50;;;3.20;;
6809;SDS011;3443;48.812;9.112;2023-08-24T03:21:30;3.65;;;3.35;;
6809;SDS011;3443;48.812;9.112;2023-08-24T03:23:56;3.75;;;3.38;;
6809;SDS011;3443;48.812;9.112;2023-08-24T03:26:22;3.33;;;3.13;;
6809;SDS011;3443;48.812;9.112;2023-08-24T03:28:48;3.42;;;3.22;;
6809;SDS011;3443;48.812;9.112;2023-08-24T03:31:15;3.38;;;3.17;;
6809;SDS011;3443;48.812;9.112;2023-08-24T03:33:41;3.30;;;3.20;;
6809;SDS011;3443;48.812;9.112;2023-08-24T03:36:07;3.40;;;3.03;;
6809;SDS011;3443;48.812;9.112;2023-08-24T03:38:33;3.25;;;2.92;;
6809;SDS011;3443;48.812;9.112;2023-08-24T03:41:02;4.35;;;3.60;;
6809;SDS011;3443;48.812;9.112;2023-08-24T03:43:30;3.33;;;3.00;;
6809;SDS011;3443;48.812;9.112;2023-08-24T03:45:56;3.50;;;3.30;;
6809;SDS011;3443;48.812;9.112;2023-08-24T03:48:22;3.92;;;2.90;;
6809;SDS011;3443;48.812;9.112;2023-08-24T03:50:48;3.72;;;3.25;;
6809;SDS011;3443;48.812;9.112;2023-08-24T03:53:14;3.60;;;3.30;;
6809;SDS011;3443;48.812;9.112;2023-08-24T03:55:40;3.67;;;3.38;;
6809;SDS011;3443;48.812;9.112;2023-08-24T03:58:06;3.53;;;3.10;;
6809;SDS011;3443;48.812;9.112;2023-08-24T04:00:33;4.32;;;3.05;;
6809;SDS011;3443;48.812;9.112;2023-08-24T04:02:59;3.85;;;3.30;;
6809;SDS011;3443;48.812;9.112;2023-08-24T04:05:24;4.07;;;3.67;;
6809;SDS011;3443;48.812;9.112;2023-08-24T04:07:50;4.13;;;3.72;;
6809;SDS011;3443;48.812;9.112;2023-08-24T04:10:17;5.63;;;4.25;;
6809;SDS011;3443;48.812;9.112;2023-08-24T04:12:43;4.85;;;4.32;;
6809;SDS011;3443;48.812;9.112;2023-08-24T04:15:09;4.13;;;3.92;;
6809;SDS011;3443;48.812;9.112;2023-08-24T04:17:36;4.10;;;3.70;;
6809;SDS011;3443;48.812;9.112;2023-08-24T04:20:02;4.60;;;4.30;;
6809;SDS011;3443;48.812;9.112;2023-08-24T04:22:31;4.65;;;3.95;;
6809;SDS011;3443;48.812;9.112;2023-08-24T04:24:57;4.10;;;3.90;;
6809;SDS011;3443;48.812;9.112;2023-08-24T04:27:23;6.05;;;3.67;;
6809;SDS011;3443;48.812;9.112;2023-08-24T04:29:49;4.78;;;4.40;;
6809;SDS011;3443;48.812;9.112;2023-08-24T04:32:15;5.47;;;4.40;;
6809;SDS011;3443;48.812;9.112;2023-08-24T04:34:41;5.45;;;4.95;;
6809;SDS011;3443;48.812;9.112;2023-08-24T04:37:07;4.45;;;4.15;;
6809;SDS011;3443;48.812;9.112;2023-08-24T04:39:33;5.72;;;4.50;;
6809;SDS011;3443;48.812;9.112;2023-08-24T04:41:59;5.20;;;4.70;;
6809;SDS011;3443;48.812;9.112;2023-08-24T04:44:25;6.05;;;5.45;;
6809;SDS011;3443;48.812;9.112;2023-08-24T04:46:51;4.53;;;4.22;;
6809;SDS011;3443;48.812;9.112;2023-08-24T04:49:16;8.68;;;6.18;;
6809;SDS011;3443;48.812;9.112;2023-08-24T04:51:42;4.90;;;4.50;;
6809;SDS011;3443;48.812;9.112;2023-08-24T04:54:08;6.07;;;4.50;;
6809;SDS011;3443;48.812;9.112;2023-08-24T04:56:34;4.80;;;4.47;;
6809;SDS011;3443;48.812;9.112;2023-08-24T04:59:00;5.97;;;4.97;;
6809;SDS011;3443;48.812;9.112;2023-08-24T05:01:27;5.07;;;4.43;;
6809;SDS011;3443;48.812;9.112;2023-08-24T05:03:56;6.38;;;4.00;;
6809;SDS011;3443;48.812;9.112;2023-08-24T05:06:22;5.15;;;4.78;;
6809;SDS011;3443;48.812;9.112;2023-08-24T05:08:48;5.22;;;4.93;;
6809;SDS011;3443;48.812;9.112;2023-08-24T05:11:17;5.15;;;4.75;;
6809;SDS011;3443;48.812;9.112;2023-08-24T05:13:43;4.88;;;4.47;;
6809;SDS011;3443;48.812;9.112;2023-08-24T05:16:09;4.90;;;4.60;;
6809;SDS011;3443;48.812;9.112;2023-08-24T05:18:35;8.45;;;5.72;;
6809;SDS011;3443;48.812;9.112;2023-08-24T05:21:02;6.35;;;5.75;;
6809;SDS011;3443;48.812;9.112;2023-08-24T05:23:28;5.30;;;4.88;;
6809;SDS011;3443;48.812;9.112;2023-08-24T05:25:55;5.55;;;5.00;;
6809;SDS011;3443;48.812;9.112;2023-08-24T05:28:22;6.30;;;5.03;;
6809;SDS011;3443;48.812;9.112;2023-08-24T05:30:48;7.07;;;5.28;;
6809;SDS011;3443;48.812;9.112;2023-08-24T05:33:14;6.97;;;6.28;;
6809;SDS011;3443;48.812;9.112;2023-08-24T05:35:40;7.45;;;5.75;;
6809;SDS011;3443;48.812;9.112;2023-08-24T05:38:06;5.18;;;4.72;;
6809;SDS011;3443;48.812;9.112;2023-08-24T05:40:33;5.43;;;4.70;;
6809;SDS011;3443;48.812;9.112;2023-08-24T05:42:59;4.35;;;3.95;;
6809;SDS011;3443;48.812;9.112;2023-08-24T05:45:25;3.85;;;3.65;;
6809;SDS011;3443;48.812;9.112;2023-08-24T05:47:51;4.50;;;4.20;;
6809;SDS011;3443;48.812;9.112;2023-08-24T05:50:17;3.90;;;3.65;;
6809;SDS011;3443;48.812;9.112;2023-08-24T05:52:43;5.15;;;3.90;;
6809;SDS011;3443;48.812;9.112;2023-08-24T05:55:09;4.60;;;4.22;;
6809;SDS011;3443;48.812;9.112;2023-08-24T05:57:35;4.10;;;3.80;;
6809;SDS011;3443;48.812;9.112;2023-08-24T06:00:01;4.47;;;4.18;;
6809;SDS011;3443;48.812;9.112;2023-08-24T06:02:28;4.18;;;3.88;;
6809;SDS011;3443;48.812;9.112;2023-08-24T06:04:54;4.07;;;3.70;;
6809;SDS011;3443;48.812;9.112;2023-08-24T06:07:20;5.03;;;3.97;;
6809;SDS011;3443;48.812;9.112;2023-08-24T06:09:46;5.30;;;3.83;;
6809;SDS011;3443;48.812;9.112;2023-08-24T06:12:12;4.82;;;4.40;;
6809;SDS011;3443;48.812;9.112;2023-08-24T06:14:38;4.10;;;3.85;;
6809;SDS011;3443;48.812;9.112;2023-08-24T06:17:04;4.25;;;3.80;;
6809;SDS011;3443;48.812;9.112;2023-08-24T06:19:30;4.10;;;3.70;;
6809;SDS011;3443;48.812;9.112;2023-08-24T06:21:56;4.10;;;3.80;;
6809;SDS011;3443;48.812;9.112;2023-08-24T06:24:22;5.10;;;3.70;;
6809;SDS011;3443;48.812;9.112;2023-08-24T06:26:48;6.82;;;4.65;;
6809;SDS011;3443;48.812;9.112;2023-08-24T06:29:14;5.35;;;4.85;;
6809;SDS011;3443;48.812;9.112;2023-08-24T06:31:40;6.00;;;5.30;;
6809;SDS011;3443;48.812;9.112;2023-08-24T06:34:06;6.22;;;4.90;;
6809;SDS011;3443;48.812;9.112;2023-08-24T06:36:32;5.90;;;5.40;;
6809;SDS011;3443;48.812;9.112;2023-08-24T06:38:58;6.43;;;5.40;;
6809;SDS011;3443;48.812;9.112;2023-08-24T06:41:24;5.80;;;4.80;;
6809;SDS011;3443;48.812;9.112;2023-08-24T06:43:50;6.20;;;5.05;;
6809;SDS011;3443;48.812;9.112;2023-08-24T06:46:18;8.25;;;5.82;;
6809;SDS011;3443;48.812;9.112;2023-08-24T06:48:45;6.28;;;5.68;;
6809;SDS011;3443;48.812;9.112;2023-08-24T06:51:11;5.28;;;4.80;;
6809;SDS011;3443;48.812;9.112;2023-08-24T06:53:36;6.70;;;5.20;;
6809;SDS011;3443;48.812;9.112;2023-08-24T06:56:03;7.60;;;5.47;;
6809;SDS011;3443;48.812;9.112;2023-08-24T06:58:29;6.30;;;5.78;;
6809;SDS011;3443;48.812;9.112;2023-08-24T07:00:54;8.30;;;5.35;;
6809;SDS011;3443;48.812;9.112;2023-08-24T07:03:22;5.25;;;4.82;;
6809;SDS011;3443;48.812;9.112;2023-08-24T07:05:49;5.47;;;4.97;;
6809;SDS011;3443;48.812;9.112;2023-08-24T07:08:15;5.82;;;5.13;;
6809;SDS011;3443;48.812;9.112;2023-08-24T07:10:41;4.82;;;4.43;;
6809;SDS011;3443;48.812;9.112;2023-08-24T07:13:07;5.65;;;4.68;;
6809;SDS011;3443;48.812;9.112;2023-08-24T07:15:34;12.30;;;5.25;;
6809;SDS011;3443;48.812;9.112;2023-08-24T07:18:01;5.07;;;4.60;;
6809;SDS011;3443;48.812;9.112;2023-08-24T07:20:27;6.15;;;5.65;;
6809;SDS011;3443;48.812;9.112;2023-08-24T07:22:52;5.95;;;5.40;;
6809;SDS011;3443;48.812;9.112;2023-08-24T07:25:19;6.47;;;5.90;;
6809;SDS011;3443;48.812;9.112;2023-08-24T07:27:48;9.20;;;5.93;;
6809;SDS011;3443;48.812;9.112;2023-08-24T07:30:14;6.78;;;5.22;;
6809;SDS011;3443;48.812;9.112;2023-08-24T07:32:40;6.55;;;5.15;;
6809;SDS011;3443;48.812;9.112;2023-08-24T07:35:06;6.72;;;5.63;;
6809;SDS011;3443;48.812;9.112;2023-08-24T07:37:32;9.50;;;5.65;;
6809;SDS011;3443;48.812;9.112;2023-08-24T07:39:58;8.90;;;5.70;;
6809;SDS011;3443;48.812;9.112;2023-08-24T07:42:24;6.55;;;5.65;;
6809;SDS011;3443;48.812;9.112;2023-08-24T07:44:50;11.10;;;8.45;;
6809;SDS011;3443;48.812;9.112;2023-08-24T07:47:16;53.45;;;26.38;;
6809;SDS011;3443;48.812;9.112;2023-08-24T07:49:42;13.52;;;9.65;;
6809;SDS011;3443;48.812;9.112;2023-08-24T07:52:12;25.70;;;15.38;;
6809;SDS011;3443;48.812;9.112;2023-08-24T07:54:38;31.38;;;17.95;;
6809;SDS011;3443;48.812;9.112;2023-08-24T07:57:05;24.02;;;13.80;;
6809;SDS011;3443;48.812;9.112;2023-08-24T07:59:31;10.20;;;7.00;;
6809;SDS011;3443;48.812;9.112;2023-08-24T08:01:57;10.35;;;7.32;;
6809;SDS011;3443;48.812;9.112;2023-08-24T08:04:23;6.93;;;6.22;;
6809;SDS011;3443;48.812;9.112;2023-08-24T08:06:49;6.50;;;5.38;;
6809;SDS011;3443;48.812;9.112;2023-08-24T08:09:15;5.53;;;4.97;;
6809;SDS011;3443;48.812;9.112;2023-08-24T08:11:42;5.63;;;5.13;;
6809;SDS011;3443;48.812;9.112;2023-08-24T08:14:08;9.23;;;5.20;;
6809;SDS011;3443;48.812;9.112;2023-08-24T08:16:34;6.22;;;4.78;;
6809;SDS011;3443;48.812;9.112;2023-08-24T08:19:01;4.75;;;4.35;;
6809;SDS011;3443;48.812;9.112;2023-08-24T08:21:27;6.95;;;5.38;;
6809;SDS011;3443;48.812;9.112;2023-08-24T08:23:54;7.22;;;4.80;;
6809;SDS011;3443;48.812;9.112;2023-08-24T08:26:20;8.13;;;5.03;;
6809;SDS011;3443;48.812;9.112;2023-08-24T08:28:46;5.53;;;4.60;;
6809;SDS011;3443;48.812;9.112;2023-08-24T08:31:12;5.82;;;4.35;;
6809;SDS011;3443;48.812;9.112;2023-08-24T08:33:38;4.55;;;4.00;;
6809;SDS011;3443;48.812;9.112;2023-08-24T08:36:04;5.95;;;4.38;;
6809;SDS011;3443;48.812;9.112;2023-08-24T08:38:30;5.72;;;4.10;;
6809;SDS011;3443;48.812;9.112;2023-08-24T08:40:58;6.32;;;4.20;;
6809;SDS011;3443;48.812;9.112;2023-08-24T08:43:27;4.60;;;4.20;;
6809;SDS011;3443;48.812;9.112;2023-08-24T08:45:55;6.93;;;4.10;;
6809;SDS011;3443;48.812;9.112;2023-08-24T08:48:21;7.45;;;4.05;;
6809;SDS011;3443;48.812;9.112;2023-08-24T08:50:51;5.43;;;3.60;;
6809;SDS011;3443;48.812;9.112;2023-08-24T08:53:21;5.85;;;3.97;;
6809;SDS011;3443;48.812;9.112;2023-08-24T08:55:47;3.65;;;3.35;;
6809;SDS011;3443;48.812;9.112;2023-08-24T08:58:13;3.80;;;3.53;;
6809;SDS011;3443;48.812;9.112;2023-08-24T09:00:40;3.17;;;2.97;;
6809;SDS011;3443;48.812;9.112;2023-08-24T09:03:06;5.03;;;3.20;;
6809;SDS011;3443;48.812;9.112;2023-08-24T09:05:32;6.95;;;3.63;;
6809;SDS011;3443;48.812;9.112;2023-08-24T09:07:58;3.90;;;3.30;;
6809;SDS011;3443;48.812;9.112;2023-08-24T09:10:27;4.80;;;3.05;;
6809;SDS011;3443;48.812;9.112;2023-08-24T09:12:53;4.88;;;3.25;;
6809;SDS011;3443;48.812;9.112;2023-08-24T09:15:27;3.83;;;3.35;;
6809;SDS011;3443;48.812;9.112;2023-08-24T09:17:53;3.83;;;3.42;;
6809;SDS011;3443;48.812;9.112;2023-08-24T09:20:21;3.42;;;3.08;;
6809;SDS011;3443;48.812;9.112;2023-08-24T09:22:47;4.05;;;3.40;;
6809;SDS011;3443;48.812;9.112;2023-08-24T09:25:13;3.10;;;2.90;;
6809;SDS011;3443;48.812;9.112;2023-08-24T09:27:39;4.07;;;3.03;;
6809;SDS011;3443;48.812;9.112;2023-08-24T09:30:06;3.90;;;3.13;;
6809;SDS011;3443;48.812;9.112;2023-08-24T09:32:33;2.92;;;2.72;;
6809;SDS011;3443;48.812;9.112;2023-08-24T09:35:02;2.97;;;2.78;;
6809;SDS011;3443;48.812;9.112;2023-08-24T09:37:31;4.30;;;3.22;;
6809;SDS011;3443;48.812;9.112;2023-08-24T09:40:07;2.92;;;2.60;;
6809;SDS011;3443;48.812;9.112;2023-08-24T09:42:42;4.25;;;3.05;;
6809;SDS011;3443;48.812;9.112;2023-08-24T09:45:12;3.33;;;2.97;;
6809;SDS011;3443;48.812;9.112;2023-08-24T09:47:39;3.67;;;2.85;;
6809;SDS011;3443;48.812;9.112;2023-08-24T09:50:05;2.90;;;2.70;;
6809;SDS011;3443;48.812;9.112;2023-08-24T09:52:32;3.40;;;2.70;;
6809;SDS011;3443;48.812;9.112;2023-08-24T09:55:05;3.28;;;2.78;;
6809;SDS011;3443;48.812;9.112;2023-08-24T09:57:32;5.95;;;3.20;;
6809;SDS011;3443;48.812;9.112;2023-08-24T09:59:59;2.80;;;2.60;;
6809;SDS011;3443;48.812;9.112;2023-08-24T10:02:25;3.53;;;3.22;;
6809;SDS011;3443;48.812;9.112;2023-08-24T10:04:52;3.58;;;2.78;;
6809;SDS011;3443;48.812;9.112;2023-08-24T10:07:20;3.28;;;2.95;;
6809;SDS011;3443;48.812;9.112;2023-08-24T10:09:58;5.38;;;2.95;;
6809;SDS011;3443;48.812;9.112;2023-08-24T10:12:24;4.28;;;3.20;;
6809;SDS011;3443;48.812;9.112;2023-08-24T10:14:56;6.65;;;3.50;;
6809;SDS011;3443;48.812;9.112;2023-08-24T10:17:27;6.22;;;3.35;;
6809;SDS011;3443;48.812;9.112;2023-08-24T10:19:53;4.80;;;3.60;;
6809;SDS011;3443;48.812;9.112;2023-08-24T10:22:20;3.35;;;2.95;;
6809;SDS011;3443;48.812;9.112;2023-08-24T10:24:47;3.63;;;3.17;;
6809;SDS011;3443;48.812;9.112;2023-08-24T10:27:13;3.53;;;3.22;;
6809;SDS011;3443;48.812;9.112;2023-08-24T10:29:40;4.15;;;3.45;;
6809;SDS011;3443;48.812;9.112;2023-08-24T10:32:06;4.65;;;3.28;;
6809;SDS011;3443;48.812;9.112;2023-08-24T10:34:33;4.03;;;3.40;;
6809;SDS011;3443;48.812;9.112;2023-08-24T10:37:08;3.97;;;3.30;;
6809;SDS011;3443;48.812;9.112;2023-08-24T10:39:35;4.72;;;3.30;;
6809;SDS011;3443;48.812;9.112;2023-08-24T10:42:03;4.00;;;3.60;;
6809;SDS011;3443;48.812;9.112;2023-08-24T10:44:35;5.97;;;3.75;;
6809;SDS011;3443;48.812;9.112;2023-08-24T10:49:40;4.40;;;3.63;;
6809;SDS011;3443;48.812;9.112;2023-08-24T10:52:16;4.32;;;3.47;;
6809;SDS011;3443;48.812;9.112;2023-08-24T10:54:46;5.03;;;4.20;;
6809;SDS011;3443;48.812;9.112;2023-08-24T10:57:23;4.18;;;3.72;;
6809;SDS011;3443;48.812;9.112;2023-08-24T11:00:06;5.25;;;3.42;;
6809;SDS011;3443;48.812;9.112;2023-08-24T11:02:42;3.67;;;3.28;;
6809;SDS011;3443;48.812;9.112;2023-08-24T11:05:21;8.45;;;3.75;;
6809;SDS011;3443;48.812;9.112;2023-08-24T11:08:08;4.35;;;3.75;;
6809;SDS011;3443;48.812;9.112;2023-08-24T11:13:15;4.43;;;3.67;;
6809;SDS011;3443;48.812;9.112;2023-08-24T11:18:11;5.47;;;4.00;;
6809;SDS011;3443;48.812;9.112;2023-08-24T11:20:37;4.18;;;3.80;;
6809;SDS011;3443;48.812;9.112;2023-08-24T11:23:03;8.70;;;3.97;;
6809;SDS011;3443;48.812;9.112;2023-08-24T11:25:29;4.18;;;3.88;;
6809;SDS011;3443;48.812;9.112;2023-08-24T11:27:56;5.75;;;4.32;;
6809;SDS011;3443;48.812;9.112;2023-08-24T11:30:23;5.28;;;3.63;;
6809;SDS011;3443;48.812;9.112;2023-08-24T11:32:52;4.53;;;4.13;;
6809;SDS011;3443;48.812;9.112;2023-08-24T11:35:18;6.18;;;4.00;;
6809;SDS011;3443;48.812;9.112;2023-08-24T11:37:50;6.32;;;4.03;;
6809;SDS011;3443;48.812;9.112;2023-08-24T11:40:16;5.28;;;4.45;;
6809;SDS011;3443;48.812;9.112;2023-08-24T11:42:44;4.53;;;4.22;;
6809;SDS011;3443;48.812;9.112;2023-08-24T11:45:13;4.18;;;3.80;;
6809;SDS011;3443;48.812;9.112;2023-08-24T11:47:39;5.07;;;4.68;;
6809;SDS011;3443;48.812;9.112;2023-08-24T11:50:05;4.53;;;4.13;;
6809;SDS011;3443;48.812;9.112;2023-08-24T11:52:32;4.25;;;3.85;;
6809;SDS011;3443;48.812;9.112;2023-08-24T11:55:00;4.75;;;4.03;;
6809;SDS011;3443;48.812;9.112;2023-08-24T11:57:26;5.70;;;4.60;;
6809;SDS011;3443;48.812;9.112;2023-08-24T11:59:53;4.45;;;3.97;;
6809;SDS011;3443;48.812;9.112;2023-08-24T12:02:20;6.18;;;4.60;;
6809;SDS011;3443;48.812;9.112;2023-08-24T12:04:48;4.90;;;4.20;;
6809;SDS011;3443;48.812;9.112;2023-08-24T12:07:14;4.60;;;4.20;;
6809;SDS011;3443;48.812;9.112;2023-08-24T12:09:42;4.95;;;4.32;;
6809;SDS011;3443;48.812;9.112;2023-08-24T12:12:12;5.15;;;4.13;;
6809;SDS011;3443;48.812;9.112;2023-08-24T12:14:41;8.77;;;4.28;;
6809;SDS011;3443;48.812;9.112;2023-08-24T12:17:10;4.43;;;4.03;;
6809;SDS011;3443;48.812;9.112;2023-08-24T12:19:37;8.40;;;4.30;;
6809;SDS011;3443;48.812;9.112;2023-08-24T12:22:07;6.95;;;3.95;;
6809;SDS011;3443;48.812;9.112;2023-08-24T12:24:34;4.43;;;4.00;;
6809;SDS011;3443;48.812;9.112;2023-08-24T12:27:00;7.85;;;4.15;;
6809;SDS011;3443;48.812;9.112;2023-08-24T12:29:28;5.68;;;4.10;;
6809;SDS011;3443;48.812;9.112;2023-08-24T12:31:57;5.47;;;3.90;;
6809;SDS011;3443;48.812;9.112;2023-08-24T12:34:23;7.07;;;4.00;;
6809;SDS011;3443;48.812;9.112;2023-08-24T12:36:49;8.00;;;4.00;;
6809;SDS011;3443;48.812;9.112;2023-08-24T12:39:15;6.30;;;3.67;;
6809;SDS011;3443;48.812;9.112;2023-08-24T12:41:41;5.90;;;4.20;;
6809;SDS011;3443;48.812;9.112;2023-08-24T12:44:07;6.80;;;4.00;;
6809;SDS011;3443;48.812;9.112;2023-08-24T12:46:34;8.18;;;4.68;;
6809;SDS011;3443;48.812;9.112;2023-08-24T12:49:00;4.90;;;4.13;;
6809;SDS011;3443;48.812;9.112;2023-08-24T12:51:26;6.07;;;4.25;;
6809;SDS011;3443;48.812;9.112;2023-08-24T12:53:52;11.93;;;4.57;;
6809;SDS011;3443;48.812;9.112;2023-08-24T12:56:18;7.57;;;3.90;;
6809;SDS011;3443;48.812;9.112;2023-08-24T12:58:44;6.43;;;3.90;;
6809;SDS011;3443;48.812;9.112;2023-08-24T13:01:11;9.07;;;4.30;;
6809;SDS011;3443;48.812;9.112;2023-08-24T13:03:37;6.10;;;3.63;;
6809;SDS011;3443;48.812;9.112;2023-08-24T13:06:04;6.60;;;3.78;;
6809;SDS011;3443;48.812;9.112;2023-08-24T13:08:30;7.55;;;4.25;;
6809;SDS011;3443;48.812;9.112;2023-08-24T13:10:56;6.45;;;3.70;;
6809;SDS011;3443;48.812;9.112;2023-08-24T13:13:22;9.43;;;4.05;;
6809;SDS011;3443;48.812;9.112;2023-08-24T13:15:49;5.22;;;3.90;;
6809;SDS011;3443;48.812;9.112;2023-08-24T13:18:16;8.98;;;3.95;;
6809;SDS011;3443;48.812;9.112;2023-08-24T13:20:42;5.47;;;4.18;;
6809;SDS011;3443;48.812;9.112;2023-08-24T13:23:08;6.57;;;3.83;;
6809;SDS011;3443;48.812;9.112;2023-08-24T13:25:34;7.47;;;4.10;;
6809;SDS011;3443;48.812;9.112;2023-08-24T13:28:00;5.88;;;3.92;;
6809;SDS011;3443;48.812;9.112;2023-08-24T13:30:26;5.55;;;3.90;;
6809;SDS011;3443;48.812;9.112;2023-08-24T13:32:52;5.93;;;3.88;;
6809;SDS011;3443;48.812;9.112;2023-08-24T13:35:18;4.50;;;4.00;;
6809;SDS011;3443;48.812;9.112;2023-08-24T13:37:44;6.90;;;4.30;;
6809;SDS011;3443;48.812;9.112;2023-08-24T13:40:10;5.40;;;3.85;;
6809;SDS011;3443;48.812;9.112;2023-08-24T13:42:37;6.28;;;4.00;;
6809;SDS011;3443;48.812;9.112;2023-08-24T13:45:03;7.63;;;4.35;;
6809;SDS011;3443;48.812;9.112;2023-08-24T13:47:29;8.35;;;4.25;;
6809;SDS011;3443;48.812;9.112;2023-08-24T13:49:55;12.00;;;4.30;;
6809;SDS011;3443;48.812;9.112;2023-08-24T13:52:21;5.45;;;3.83;;
6809;SDS011;3443;48.812;9.112;2023-08-24T13:54:47;6.10;;;3.80;;
6809;SDS011;3443;48.812;9.112;2023-08-24T13:57:13;11.60;;;4.15;;
6809;SDS011;3443;48.812;9.112;2023-08-24T13:59:39;7.03;;;4.15;;
6809;SDS011;3443;48.812;9.112;2023-08-24T14:02:05;7.32;;;3.83;;
6809;SDS011;3443;48.812;9.112;2023-08-24T14:04:32;7.18;;;4.05;;
6809;SDS011;3443;48.812;9.112;2023-08-24T14:06:58;7.13;;;3.97;;
6809;SDS011;3443;48.812;9.112;2023-08-24T14:09:24;7.03;;;3.90;;
6809;SDS011;3443;48.812;9.112;2023-08-24T14:11:50;12.30;;;4.00;;
6809;SDS011;3443;48.812;9.112;2023-08-24T14:14:16;8.05;;;4.15;;
6809;SDS011;3443;48.812;9.112;2023-08-24T14:16:42;8.65;;;4.00;;
6809;SDS011;3443;48.812;9.112;2023-08-24T14:19:08;9.45;;;4.07;;
6809;SDS011;3443;48.812;9.112;2023-08-24T14:21:35;7.63;;;3.33;;
6809;SDS011;3443;48.812;9.112;2023-08-24T14:24:01;7.75;;;3.85;;
6809;SDS011;3443;48.812;9.112;2023-08-24T14:26:27;8.23;;;3.53;;
6809;SDS011;3443;48.812;9.112;2023-08-24T14:28:54;8.75;;;3.88;;
6809;SDS011;3443;48.812;9.112;2023-08-24T14:31:21;7.35;;;4.00;;
6809;SDS011;3443;48.812;9.112;2023-08-24T14:33:48;11.93;;;3.75;;
6809;SDS011;3443;48.812;9.112;2023-08-24T14:36:15;7.63;;;3.45;;
6809;SDS011;3443;48.812;9.112;2023-08-24T14:38:41;7.45;;;3.40;;
6809;SDS011;3443;48.812;9.112;2023-08-24T14:41:08;15.70;;;3.60;;
6809;SDS011;3443;48.812;9.112;2023-08-24T14:43:35;7.60;;;3.67;;
6809;SDS011;3443;48.812;9.112;2023-08-24T14:46:01;8.07;;;3.72;;
6809;SDS011;3443;48.812;9.112;2023-08-24T14:48:27;6.22;;;3.22;;
6809;SDS011;3443;48.812;9.112;2023-08-24T14:50:53;9.30;;;3.75;;
6809;SDS011;3443;48.812;9.112;2023-08-24T14:53:19;10.70;;;3.42;;
6809;SDS011;3443;48.812;9.112;2023-08-24T14:55:45;20.20;;;4.70;;
6809;SDS011;3443;48.812;9.112;2023-08-24T14:58:11;23.92;;;5.88;;
6809;SDS011;3443;48.812;9.112;2023-08-24T15:00:37;15.52;;;5.03;;
6809;SDS011;3443;48.812;9.112;2023-08-24T15:03:03;18.05;;;4.95;;
6809;SDS011;3443;48.812;9.112;2023-08-24T15:05:29;9.57;;;4.53;;
6809;SDS011;3443;48.812;9.112;2023-08-24T15:07:55;8.77;;;2.60;;
6809;SDS011;3443;48.812;9.112;2023-08-24T15:10:21;5.15;;;2.20;;
6809;SDS011;3443;48.812;9.112;2023-08-24T15:12:47;4.55;;;2.03;;
6809;SDS011;3443;48.812;9.112;2023-08-24T15:15:13;3.47;;;2.25;;
6809;SDS011;3443;48.812;9.112;2023-08-24T15:17:43;7.03;;;2.40;;
6809;SDS011;3443;48.812;9.112;2023-08-24T15:20:09;6.05;;;2.60;;
6809;SDS011;3443;48.812;9.112;2023-08-24T15:22:38;3.92;;;2.47;;
6809;SDS011;3443;48.812;9.112;2023-08-24T15:25:04;2.72;;;2.47;;